createdAt,value
2017-11-06T00:00:01.813Z,23.6
2017-11-06T00:01:03.465Z,21.8
2017-11-06T00:02:05.117Z,22.8
2017-11-06T00:03:06.783Z,23.0
2017-11-06T00:04:08.530Z,25.5
2017-11-06T00:05:10.176Z,24.2
2017-11-06T00:06:11.824Z,21.7
2017-11-06T00:07:13.487Z,22.7
2017-11-06T00:08:15.136Z,23.6
2017-11-06T00:09:16.790Z,23.1
2017-11-06T00:10:18.432Z,26.0
2017-11-06T00:11:20.090Z,26.6
2017-11-06T00:12:21.734Z,21.5
2017-11-06T00:13:23.388Z,23.9
2017-11-06T00:14:25.043Z,25.6
2017-11-06T00:15:26.689Z,27.3
2017-11-06T00:16:28.344Z,27.0
2017-11-06T00:17:30.000Z,25.2
2017-11-06T00:18:31.645Z,26.5
2017-11-06T00:19:33.296Z,28.1
2017-11-06T00:20:34.978Z,26.1
2017-11-06T00:21:36.638Z,25.6
2017-11-06T00:22:38.287Z,26.7
2017-11-06T00:23:39.941Z,28.3
2017-11-06T00:24:41.599Z,24.9
2017-11-06T00:25:43.261Z,26.6
2017-11-06T00:26:44.910Z,33.2
2017-11-06T00:27:46.566Z,24.1
2017-11-06T00:28:48.233Z,30.0
2017-11-06T00:29:49.866Z,25.3
2017-11-06T00:30:51.532Z,25.4
2017-11-06T00:31:53.183Z,31.0
2017-11-06T00:32:54.840Z,29.1
2017-11-06T00:33:56.491Z,27.4
2017-11-06T00:34:58.144Z,30.4
2017-11-06T00:35:59.795Z,28.8
2017-11-06T00:37:01.446Z,27.5
2017-11-06T00:38:03.092Z,31.2
2017-11-06T00:39:04.746Z,27.7
2017-11-06T00:40:06.422Z,26.9
2017-11-06T00:41:08.086Z,27.0
2017-11-06T00:42:09.745Z,29.7
2017-11-06T00:43:11.400Z,30.7
2017-11-06T00:44:13.059Z,26.0
2017-11-06T00:45:14.713Z,27.7
2017-11-06T00:46:16.372Z,30.5
2017-11-06T00:47:18.070Z,26.8
2017-11-06T00:48:19.717Z,29.7
2017-11-06T00:49:21.364Z,34.3
2017-11-06T00:50:23.013Z,28.0
2017-11-06T00:51:24.682Z,31.6
2017-11-06T00:52:26.327Z,28.8
2017-11-06T00:53:27.985Z,26.8
2017-11-06T00:54:29.620Z,28.5
2017-11-06T00:55:31.272Z,27.9
2017-11-06T00:56:32.941Z,29.1
2017-11-06T00:57:34.592Z,28.9
2017-11-06T00:58:36.250Z,29.7
2017-11-06T00:59:37.895Z,25.1
2017-11-06T01:00:39.568Z,25.9
2017-11-06T01:01:41.229Z,31.7
2017-11-06T01:02:42.875Z,28.6
2017-11-06T01:03:44.523Z,30.5
2017-11-06T01:04:46.199Z,26.5
2017-11-06T01:05:47.858Z,38.7
2017-11-06T01:06:49.525Z,30.0
2017-11-06T01:07:51.249Z,31.2
2017-11-06T01:08:52.896Z,27.3
2017-11-06T01:09:54.556Z,28.1
2017-11-06T01:10:56.194Z,28.1
2017-11-06T01:11:57.841Z,28.6
2017-11-06T01:12:59.492Z,25.8
2017-11-06T01:14:01.142Z,27.7
2017-11-06T01:15:02.792Z,31.6
2017-11-06T01:16:04.452Z,30.2
2017-11-06T01:17:06.103Z,30.3
2017-11-06T01:18:07.755Z,27.9
2017-11-06T01:19:09.406Z,28.4
2017-11-06T01:20:11.062Z,30.0
2017-11-06T01:21:12.712Z,33.0
2017-11-06T01:22:14.369Z,32.4
2017-11-06T01:23:16.020Z,28.9
2017-11-06T01:24:17.664Z,33.5
2017-11-06T01:25:19.311Z,36.2
2017-11-06T01:26:20.957Z,33.3
2017-11-06T01:27:22.604Z,33.3
2017-11-06T01:28:24.254Z,34.8
2017-11-06T01:29:25.898Z,32.7
2017-11-06T01:30:27.549Z,35.6
2017-11-06T01:31:29.196Z,29.7
2017-11-06T01:32:30.849Z,33.0
2017-11-06T01:33:32.494Z,32.5
2017-11-06T01:34:34.145Z,30.7
2017-11-06T01:35:35.811Z,31.8
2017-11-06T01:36:37.455Z,31.4
2017-11-06T01:37:39.118Z,36.9
2017-11-06T01:38:40.762Z,32.9
2017-11-06T01:39:42.412Z,28.9
2017-11-06T01:40:44.061Z,29.7
2017-11-06T01:41:45.711Z,29.9
2017-11-06T01:42:47.357Z,30.8
2017-11-06T01:43:49.009Z,30.8
2017-11-06T01:44:50.660Z,29.5
2017-11-06T01:45:52.322Z,31.1
2017-11-06T01:46:53.983Z,29.2
2017-11-06T01:47:55.633Z,30.3
2017-11-06T01:48:57.289Z,34.2
2017-11-06T01:49:58.948Z,27.7
2017-11-06T01:51:00.598Z,25.7
2017-11-06T01:52:02.259Z,25.7
2017-11-06T01:53:03.912Z,28.0
2017-11-06T01:54:05.572Z,31.9
2017-11-06T01:55:07.227Z,37.7
2017-11-06T01:56:09.181Z,27.8
2017-11-06T01:57:10.839Z,30.8
2017-11-06T01:58:12.491Z,31.7
2017-11-06T01:59:14.316Z,30.2
2017-11-06T02:00:15.889Z,30.6
2017-11-06T02:01:17.592Z,30.0
2017-11-06T02:02:19.919Z,27.5
2017-11-06T02:03:22.509Z,32.1
2017-11-06T02:04:24.905Z,25.9
2017-11-06T02:05:26.988Z,22.2
2017-11-06T02:06:29.880Z,28.2
2017-11-06T02:07:33.038Z,24.4
2017-11-06T02:08:34.702Z,26.0
2017-11-06T02:09:36.401Z,29.2
2017-11-06T02:10:38.271Z,27.1
2017-11-06T02:11:39.922Z,25.0
2017-11-06T02:12:41.579Z,25.1
2017-11-06T02:13:43.231Z,20.9
2017-11-06T02:14:44.887Z,22.8
2017-11-06T02:15:46.530Z,20.7
2017-11-06T02:16:48.175Z,29.3
2017-11-06T02:17:49.834Z,24.6
2017-11-06T02:18:51.479Z,23.9
2017-11-06T02:19:53.168Z,23.9
2017-11-06T02:20:54.831Z,22.1
2017-11-06T02:21:56.483Z,23.6
2017-11-06T02:22:58.133Z,29.0
2017-11-06T02:23:59.787Z,22.0
2017-11-06T02:25:01.430Z,25.6
2017-11-06T02:26:03.086Z,22.9
2017-11-06T02:27:04.737Z,21.5
2017-11-06T02:28:06.389Z,22.6
2017-11-06T02:29:08.044Z,24.8
2017-11-06T02:30:09.701Z,27.5
2017-11-06T02:31:11.352Z,27.0
2017-11-06T02:32:13.006Z,24.5
2017-11-06T02:33:14.658Z,23.0
2017-11-06T02:34:16.311Z,22.7
2017-11-06T02:35:17.957Z,27.0
2017-11-06T02:36:19.605Z,23.1
2017-11-06T02:37:21.262Z,24.8
2017-11-06T02:38:22.917Z,23.9
2017-11-06T02:39:24.561Z,24.9
2017-11-06T02:40:26.203Z,23.9
2017-11-06T02:41:27.857Z,26.4
2017-11-06T02:42:29.517Z,22.2
2017-11-06T02:43:31.174Z,26.3
2017-11-06T02:44:32.822Z,22.7
2017-11-06T02:45:34.475Z,24.4
2017-11-06T02:46:36.181Z,25.7
2017-11-06T02:47:37.834Z,27.7
2017-11-06T02:48:39.477Z,21.8
2017-11-06T02:49:41.125Z,26.0
2017-11-06T02:50:42.774Z,27.2
2017-11-06T02:51:44.427Z,23.2
2017-11-06T02:52:46.075Z,24.5
2017-11-06T02:53:47.731Z,26.3
2017-11-06T02:54:49.362Z,24.8
2017-11-06T03:01:05.946Z,26.1
2017-11-06T03:02:07.601Z,25.9
2017-11-06T03:03:09.245Z,25.5
2017-11-06T03:04:10.895Z,30.1
2017-11-06T03:05:12.536Z,27.1
2017-11-06T03:06:14.186Z,31.4
2017-11-06T03:07:15.842Z,25.7
2017-11-06T03:08:17.500Z,26.6
2017-11-06T03:09:19.151Z,27.8
2017-11-06T03:10:20.795Z,28.1
2017-11-06T03:11:22.445Z,25.7
2017-11-06T03:12:24.097Z,28.7
2017-11-06T03:13:25.739Z,36.1
2017-11-06T03:14:27.386Z,27.9
2017-11-06T03:15:29.037Z,30.4
2017-11-06T03:16:30.688Z,29.8
2017-11-06T03:17:32.340Z,27.8
2017-11-06T03:18:33.986Z,29.7
2017-11-06T03:19:35.644Z,31.8
2017-11-06T03:20:37.291Z,32.9
2017-11-06T03:21:38.945Z,30.7
2017-11-06T03:22:40.583Z,29.6
2017-11-06T03:23:42.233Z,33.5
2017-11-06T03:24:43.873Z,30.1
2017-11-06T03:25:45.513Z,31.4
2017-11-06T03:26:47.165Z,34.4
2017-11-06T03:27:48.811Z,29.4
2017-11-06T03:28:50.519Z,30.3
2017-11-06T03:29:52.183Z,31.6
2017-11-06T03:30:53.843Z,26.1
2017-11-06T03:31:55.469Z,25.3
2017-11-06T03:32:57.118Z,28.5
2017-11-06T03:33:58.762Z,27.0
2017-11-06T03:35:00.424Z,30.1
2017-11-06T03:36:02.126Z,30.4
2017-11-06T03:37:03.787Z,28.5
2017-11-06T03:38:05.433Z,30.0
2017-11-06T03:39:07.082Z,29.0
2017-11-06T03:40:08.732Z,29.9
2017-11-06T03:41:10.379Z,28.3
2017-11-06T03:42:12.029Z,26.8
2017-11-06T03:43:13.686Z,26.1
2017-11-06T03:44:15.335Z,26.5
2017-11-06T03:45:17.023Z,29.9
2017-11-06T03:46:18.675Z,25.0
2017-11-06T03:47:20.323Z,26.2
2017-11-06T03:48:21.974Z,30.4
2017-11-06T03:49:23.628Z,30.0
2017-11-06T03:50:25.273Z,28.4
2017-11-06T03:51:26.923Z,27.2
2017-11-06T03:52:28.579Z,32.8
2017-11-06T03:53:30.226Z,30.1
2017-11-06T03:54:31.917Z,28.1
2017-11-06T03:55:33.573Z,33.0
2017-11-06T03:56:35.230Z,28.5
2017-11-06T03:57:36.885Z,31.1
2017-11-06T03:58:38.542Z,31.3
2017-11-06T03:59:40.194Z,33.6
2017-11-06T04:00:41.838Z,32.2
2017-11-06T04:01:43.492Z,33.5
2017-11-06T04:02:45.130Z,28.3
2017-11-06T04:03:46.781Z,33.3
2017-11-06T04:04:48.433Z,35.1
2017-11-06T04:05:50.080Z,34.9
2017-11-06T04:06:51.726Z,33.0
2017-11-06T04:07:53.379Z,29.4
2017-11-06T04:08:55.034Z,30.0
2017-11-06T04:09:56.692Z,33.8
2017-11-06T04:10:58.342Z,35.2
2017-11-06T04:12:00.027Z,34.2
2017-11-06T04:13:01.680Z,35.1
2017-11-06T04:14:03.323Z,32.9
2017-11-06T04:15:04.984Z,33.2
2017-11-06T04:16:06.632Z,31.6
2017-11-06T04:17:08.286Z,36.0
2017-11-06T04:18:09.941Z,32.4
2017-11-06T04:19:11.597Z,37.2
2017-11-06T04:20:13.250Z,39.7
2017-11-06T04:21:14.900Z,36.6
2017-11-06T04:22:16.549Z,32.7
2017-11-06T04:23:18.202Z,32.0
2017-11-06T04:24:19.849Z,41.0
2017-11-06T04:25:21.502Z,38.5
2017-11-06T04:26:23.151Z,38.4
2017-11-06T04:27:24.804Z,42.5
2017-11-06T04:28:26.453Z,34.2
2017-11-06T04:29:28.101Z,36.7
2017-11-06T04:30:29.750Z,40.5
2017-11-06T04:31:31.407Z,39.2
2017-11-06T04:32:33.061Z,34.9
2017-11-06T04:33:34.713Z,40.9
2017-11-06T04:34:36.360Z,39.3
2017-11-06T04:35:38.010Z,39.0
2017-11-06T04:36:39.660Z,38.4
2017-11-06T04:37:41.314Z,39.7
2017-11-06T04:38:42.967Z,39.4
2017-11-06T04:39:44.625Z,42.4
2017-11-06T04:40:46.278Z,37.5
2017-11-06T04:41:47.949Z,39.4
2017-11-06T04:42:49.593Z,41.0
2017-11-06T04:43:51.245Z,34.8
2017-11-06T04:44:52.905Z,40.6
2017-11-06T04:45:54.541Z,41.6
2017-11-06T04:46:56.196Z,41.4
2017-11-06T04:47:57.850Z,42.5
2017-11-06T04:48:59.503Z,36.4
2017-11-06T04:50:01.146Z,34.7
2017-11-06T04:51:02.800Z,37.3
2017-11-06T04:52:04.454Z,36.5
2017-11-06T04:53:06.102Z,39.7
2017-11-06T04:54:07.752Z,36.4
2017-11-06T04:55:09.406Z,34.5
2017-11-06T04:56:11.057Z,36.4
2017-11-06T04:57:12.725Z,37.0
2017-11-06T04:58:14.366Z,38.0
2017-11-06T04:59:16.018Z,44.0
2017-11-06T05:00:17.666Z,37.2
2017-11-06T05:01:19.317Z,37.7
2017-11-06T05:02:20.970Z,36.4
2017-11-06T05:03:22.636Z,42.4
2017-11-06T05:04:24.290Z,45.0
2017-11-06T05:05:25.933Z,38.0
2017-11-06T05:06:27.601Z,45.6
2017-11-06T05:07:29.254Z,41.9
2017-11-06T05:08:30.916Z,36.1
2017-11-06T05:09:32.570Z,37.5
2017-11-06T05:10:34.227Z,42.7
2017-11-06T05:11:37.439Z,36.2
2017-11-06T05:12:39.089Z,39.6
2017-11-06T05:13:40.805Z,39.2
2017-11-06T05:14:42.433Z,35.8
2017-11-06T05:15:44.079Z,38.3
2017-11-06T05:16:45.749Z,38.9
2017-11-06T05:17:47.895Z,38.5
2017-11-06T05:18:49.544Z,39.9
2017-11-06T05:19:51.190Z,37.7
2017-11-06T05:20:52.849Z,42.6
2017-11-06T05:21:55.364Z,41.8
2017-11-06T05:22:57.004Z,41.0
2017-11-06T05:23:58.658Z,37.7
2017-11-06T05:25:00.315Z,42.3
2017-11-06T05:26:01.957Z,44.8
2017-11-06T05:27:03.604Z,37.7
2017-11-06T05:28:05.273Z,39.2
2017-11-06T05:29:06.920Z,37.7
2017-11-06T05:30:08.568Z,46.4
2017-11-06T05:31:10.220Z,44.3
2017-11-06T05:32:11.871Z,41.8
2017-11-06T05:33:13.520Z,40.9
2017-11-06T05:34:15.169Z,38.5
2017-11-06T05:35:16.814Z,40.1
2017-11-06T05:36:18.461Z,41.1
2017-11-06T05:37:20.121Z,40.3
2017-11-06T05:38:21.772Z,43.5
2017-11-06T05:39:23.432Z,43.8
2017-11-06T05:40:25.081Z,43.3
2017-11-06T05:41:26.732Z,38.2
2017-11-06T05:42:29.730Z,36.2
2017-11-06T05:43:31.379Z,35.0
2017-11-06T05:44:33.036Z,40.2
2017-11-06T05:45:34.683Z,39.9
2017-11-06T05:46:36.366Z,46.8
2017-11-06T05:47:38.023Z,40.9
2017-11-06T05:48:39.678Z,40.9
2017-11-06T05:49:41.337Z,37.7
2017-11-06T05:50:43.006Z,33.8
2017-11-06T05:51:44.676Z,34.8
2017-11-06T05:52:46.335Z,40.5
2017-11-06T05:53:47.995Z,35.4
2017-11-06T05:54:49.650Z,31.2
2017-11-06T05:55:51.294Z,32.7
2017-11-06T05:56:52.950Z,35.7
2017-11-06T05:57:54.599Z,33.5
2017-11-06T05:58:56.248Z,33.8
2017-11-06T05:59:57.900Z,33.3
2017-11-06T06:00:59.560Z,34.5
2017-11-06T06:02:01.237Z,32.6
2017-11-06T06:03:02.881Z,35.4
2017-11-06T06:04:04.546Z,30.3
2017-11-06T06:05:06.200Z,30.9
2017-11-06T06:06:07.850Z,33.9
2017-11-06T06:07:09.507Z,27.4
2017-11-06T06:08:12.049Z,27.5
2017-11-06T06:09:13.729Z,27.9
2017-11-06T06:10:15.389Z,33.2
2017-11-06T06:11:17.047Z,27.8
2017-11-06T06:12:18.692Z,30.3
2017-11-06T06:13:20.347Z,27.7
2017-11-06T06:14:22.003Z,30.0
2017-11-06T06:15:23.656Z,31.6
2017-11-06T06:16:25.310Z,33.1
2017-11-06T06:17:26.999Z,30.6
2017-11-06T06:18:29.064Z,29.3
2017-11-06T06:19:30.706Z,32.3
2017-11-06T06:20:32.363Z,29.6
2017-11-06T06:21:34.017Z,33.7
2017-11-06T06:22:35.669Z,28.0
2017-11-06T06:23:37.336Z,33.7
2017-11-06T06:24:39.028Z,29.6
2017-11-06T06:25:40.677Z,25.9
2017-11-06T06:26:42.331Z,34.8
2017-11-06T06:27:43.979Z,26.7
2017-11-06T06:28:45.636Z,31.7
2017-11-06T06:29:47.285Z,33.4
2017-11-06T06:30:48.949Z,28.5
2017-11-06T06:31:50.593Z,34.5
2017-11-06T06:32:52.245Z,36.2
2017-11-06T06:33:53.896Z,33.7
2017-11-06T06:34:55.549Z,36.6
2017-11-06T06:35:57.205Z,36.6
2017-11-06T06:36:58.862Z,31.8
2017-11-06T06:38:00.516Z,31.2
2017-11-06T06:39:02.178Z,32.5
2017-11-06T06:40:03.841Z,32.0
2017-11-06T06:41:05.498Z,31.3
2017-11-06T06:42:07.160Z,33.6
2017-11-06T06:43:08.810Z,34.1
2017-11-06T06:44:10.466Z,35.9
2017-11-06T06:45:12.125Z,33.2
2017-11-06T06:46:13.775Z,32.9
2017-11-06T06:47:15.436Z,36.6
2017-11-06T06:48:17.089Z,35.8
2017-11-06T06:49:18.737Z,34.1
2017-11-06T06:50:20.390Z,32.3
2017-11-06T06:51:22.050Z,32.9
2017-11-06T06:52:23.709Z,32.2
2017-11-06T06:53:25.365Z,34.2
2017-11-06T06:54:27.071Z,32.3
2017-11-06T06:55:28.733Z,34.7
2017-11-06T07:01:55.809Z,33.4
2017-11-06T07:02:57.801Z,29.6
2017-11-06T07:03:59.588Z,32.5
2017-11-06T07:05:02.147Z,33.9
2017-11-06T07:06:03.647Z,31.5
2017-11-06T07:07:05.446Z,34.6
2017-11-06T07:08:07.593Z,33.9
2017-11-06T07:09:09.807Z,34.5
2017-11-06T07:10:11.613Z,34.7
2017-11-06T07:11:13.285Z,32.1
2017-11-06T07:12:14.935Z,37.9
2017-11-06T07:13:16.597Z,36.2
2017-11-06T07:14:18.264Z,34.2
2017-11-06T07:15:19.918Z,34.5
2017-11-06T07:16:21.578Z,36.9
2017-11-06T07:17:23.230Z,34.0
2017-11-06T07:18:24.885Z,33.1
2017-11-06T07:19:26.537Z,36.8
2017-11-06T07:20:28.192Z,35.0
2017-11-06T07:21:29.851Z,32.3
2017-11-06T07:22:31.506Z,33.4
2017-11-06T07:23:33.161Z,35.3
2017-11-06T07:24:34.809Z,36.6
2017-11-06T07:25:36.468Z,35.7
2017-11-06T07:26:38.121Z,33.5
2017-11-06T07:27:39.778Z,31.1
2017-11-06T07:28:41.431Z,35.7
2017-11-06T07:29:43.098Z,32.0
2017-11-06T07:30:44.755Z,35.5
2017-11-06T07:31:46.407Z,33.3
2017-11-06T07:32:48.130Z,30.9
2017-11-06T07:33:49.781Z,34.1
2017-11-06T07:34:51.516Z,32.9
2017-11-06T07:35:53.227Z,31.5
2017-11-06T07:36:54.886Z,33.8
2017-11-06T07:37:56.543Z,32.2
2017-11-06T07:38:58.197Z,32.1
2017-11-06T07:39:59.860Z,36.3
2017-11-06T07:41:01.513Z,29.7
2017-11-06T07:42:03.169Z,35.9
2017-11-06T07:43:04.825Z,32.8
2017-11-06T07:44:06.480Z,35.7
2017-11-06T07:45:08.140Z,31.9
2017-11-06T07:46:09.795Z,31.0
2017-11-06T07:47:11.450Z,28.5
2017-11-06T07:48:13.114Z,27.2
2017-11-06T07:49:14.779Z,29.0
2017-11-06T07:50:16.441Z,26.7
2017-11-06T07:51:18.105Z,27.4
2017-11-06T07:52:19.763Z,28.4
2017-11-06T07:53:21.427Z,26.3
2017-11-06T07:54:23.082Z,25.5
2017-11-06T07:55:24.743Z,27.9
2017-11-06T07:56:26.391Z,26.3
2017-11-06T07:57:28.057Z,22.0
2017-11-06T07:58:29.717Z,22.5
2017-11-06T07:59:31.381Z,22.0
2017-11-06T08:00:33.052Z,18.7
2017-11-06T08:01:34.713Z,21.8
2017-11-06T08:02:36.366Z,16.1
2017-11-06T08:03:38.019Z,14.1
2017-11-06T08:04:39.688Z,16.6
2017-11-06T08:05:41.350Z,17.0
2017-11-06T08:06:43.042Z,17.9
2017-11-06T08:07:44.699Z,16.5
2017-11-06T08:08:46.358Z,16.2
2017-11-06T08:09:48.019Z,16.9
2017-11-06T08:10:49.705Z,17.5
2017-11-06T08:11:51.363Z,16.0
2017-11-06T08:12:53.010Z,14.8
2017-11-06T08:13:54.678Z,18.4
2017-11-06T08:14:56.407Z,18.0
2017-11-06T08:15:58.074Z,17.1
2017-11-06T08:16:59.738Z,15.8
2017-11-06T08:18:01.414Z,17.1
2017-11-06T08:19:03.073Z,21.1
2017-11-06T08:20:04.768Z,19.2
2017-11-06T08:21:06.444Z,21.7
2017-11-06T08:22:08.097Z,19.8
2017-11-06T08:23:09.757Z,20.8
2017-11-06T08:24:11.447Z,22.4
2017-11-06T08:25:13.656Z,18.5
2017-11-06T08:26:15.352Z,20.6
2017-11-06T08:27:17.008Z,18.8
2017-11-06T08:28:18.715Z,18.1
2017-11-06T08:29:20.397Z,18.1
2017-11-06T08:30:22.102Z,18.8
2017-11-06T08:31:23.760Z,22.4
2017-11-06T08:32:25.431Z,20.5
2017-11-06T08:33:27.135Z,21.3
2017-11-06T08:34:28.769Z,24.7
2017-11-06T08:35:30.419Z,21.1
2017-11-06T08:36:32.075Z,20.1
2017-11-06T08:37:33.733Z,23.1
2017-11-06T08:38:35.432Z,21.8
2017-11-06T08:39:37.095Z,21.9
2017-11-06T08:40:38.753Z,21.5
2017-11-06T08:41:40.419Z,23.5
2017-11-06T08:42:42.105Z,19.1
2017-11-06T08:43:43.747Z,22.3
2017-11-06T08:44:45.432Z,20.4
2017-11-06T08:45:47.106Z,19.4
2017-11-06T08:46:48.763Z,19.1
2017-11-06T08:47:50.420Z,21.8
2017-11-06T08:48:52.085Z,19.9
2017-11-06T08:49:53.744Z,23.7
2017-11-06T08:50:55.409Z,27.3
2017-11-06T08:51:57.063Z,19.6
2017-11-06T08:52:58.717Z,17.7
2017-11-06T08:54:00.403Z,18.4
2017-11-06T08:55:02.070Z,17.5
2017-11-06T08:56:03.731Z,19.9
2017-11-06T08:57:05.394Z,18.5
2017-11-06T08:58:07.077Z,18.0
2017-11-06T08:59:08.740Z,15.4
2017-11-06T09:00:10.402Z,20.1
2017-11-06T09:01:12.101Z,19.6
2017-11-06T09:02:13.765Z,19.9
2017-11-06T09:03:15.430Z,21.4
2017-11-06T09:04:17.163Z,20.1
2017-11-06T09:05:18.824Z,19.2
2017-11-06T09:06:20.480Z,19.0
2017-11-06T09:07:22.145Z,18.1
2017-11-06T09:08:23.807Z,18.9
2017-11-06T09:09:25.470Z,17.7
2017-11-06T09:10:27.142Z,18.6
2017-11-06T09:11:28.818Z,16.8
2017-11-06T09:12:30.473Z,19.6
2017-11-06T09:13:32.133Z,18.8
2017-11-06T09:14:33.797Z,19.1
2017-11-06T09:15:35.452Z,16.6
2017-11-06T09:16:37.114Z,18.3
2017-11-06T09:17:38.777Z,16.8
2017-11-06T09:18:40.439Z,20.0
2017-11-06T09:19:42.103Z,23.4
2017-11-06T09:20:43.759Z,17.5
2017-11-06T09:21:45.412Z,20.5
2017-11-06T09:22:47.072Z,19.4
2017-11-06T09:23:48.739Z,20.0
2017-11-06T09:24:50.417Z,15.7
2017-11-06T09:25:52.147Z,16.1
2017-11-06T09:26:53.800Z,17.1
2017-11-06T09:27:55.473Z,16.4
2017-11-06T09:28:57.132Z,17.9
2017-11-06T09:29:58.789Z,13.9
2017-11-06T09:31:00.449Z,15.3
2017-11-06T09:32:02.117Z,12.8
2017-11-06T09:33:03.778Z,12.7
2017-11-06T09:34:05.440Z,15.9
2017-11-06T09:35:07.107Z,12.5
2017-11-06T09:36:08.766Z,11.4
2017-11-06T09:37:10.432Z,13.0
2017-11-06T09:38:12.097Z,15.3
2017-11-06T09:39:13.756Z,20.3
2017-11-06T09:40:15.421Z,14.4
2017-11-06T09:41:17.088Z,12.7
2017-11-06T09:42:18.761Z,10.3
2017-11-06T09:43:20.423Z,16.9
2017-11-06T09:44:22.087Z,17.4
2017-11-06T09:45:23.749Z,15.0
2017-11-06T09:46:25.409Z,14.8
2017-11-06T09:47:27.078Z,14.8
2017-11-06T09:48:28.776Z,14.2
2017-11-06T09:49:30.415Z,13.4
2017-11-06T09:50:32.071Z,20.6
2017-11-06T09:51:33.739Z,12.6
2017-11-06T09:52:35.405Z,18.2
2017-11-06T09:53:37.070Z,12.2
2017-11-06T09:54:38.731Z,11.2
2017-11-06T09:55:40.396Z,16.0
2017-11-06T09:56:42.063Z,13.1
2017-11-06T09:57:43.726Z,11.8
2017-11-06T09:58:45.394Z,13.6
2017-11-06T09:59:47.061Z,19.3
2017-11-06T10:00:48.732Z,10.8
2017-11-06T10:01:50.393Z,13.1
2017-11-06T10:02:52.067Z,11.7
2017-11-06T10:03:53.735Z,15.2
2017-11-06T10:04:55.398Z,13.0
2017-11-06T10:05:57.058Z,15.1
2017-11-06T10:06:58.718Z,14.5
2017-11-06T10:08:00.384Z,15.1
2017-11-06T10:09:02.049Z,11.2
2017-11-06T10:10:03.708Z,16.1
2017-11-06T10:11:05.380Z,15.9
2017-11-06T10:12:07.039Z,12.5
2017-11-06T10:13:08.696Z,20.1
2017-11-06T10:14:10.367Z,16.5
2017-11-06T10:15:12.072Z,20.0
2017-11-06T10:16:13.728Z,17.7
2017-11-06T10:17:15.387Z,19.1
2017-11-06T10:18:17.078Z,19.0
2017-11-06T10:19:18.734Z,16.6
2017-11-06T10:20:20.399Z,16.0
2017-11-06T10:21:22.076Z,14.6
2017-11-06T10:22:23.729Z,13.4
2017-11-06T10:23:25.397Z,16.5
2017-11-06T10:24:27.053Z,14.4
2017-11-06T10:25:28.707Z,15.5
2017-11-06T10:26:30.367Z,18.2
2017-11-06T10:27:32.046Z,19.1
2017-11-06T10:28:33.703Z,14.4
2017-11-06T10:29:35.375Z,18.9
2017-11-06T10:30:37.037Z,18.9
2017-11-06T10:31:38.696Z,16.5
2017-11-06T10:32:40.354Z,15.0
2017-11-06T10:33:42.018Z,19.1
2017-11-06T10:34:43.675Z,13.3
2017-11-06T10:35:45.342Z,16.3
2017-11-06T10:36:47.001Z,14.8
2017-11-06T10:37:48.669Z,11.9
2017-11-06T10:38:50.334Z,15.7
2017-11-06T10:39:51.985Z,13.8
2017-11-06T10:40:53.647Z,14.2
2017-11-06T10:41:55.323Z,15.3
2017-11-06T10:42:57.032Z,13.8
2017-11-06T10:43:58.694Z,13.3
2017-11-06T10:45:00.356Z,11.7
2017-11-06T10:46:02.037Z,14.4
2017-11-06T10:47:03.700Z,11.3
2017-11-06T10:48:05.370Z,12.4
2017-11-06T10:49:07.035Z,8.0
2017-11-06T10:50:08.702Z,7.4
2017-11-06T10:51:10.356Z,9.1
2017-11-06T10:52:12.031Z,9.8
2017-11-06T10:53:13.690Z,12.3
2017-11-06T10:54:15.350Z,9.3
2017-11-06T10:55:17.017Z,9.4
2017-11-06T11:01:28.390Z,17.4
2017-11-06T11:02:30.047Z,9.0
2017-11-06T11:03:31.710Z,11.2
2017-11-06T11:04:33.374Z,9.7
2017-11-06T11:05:35.029Z,8.4
2017-11-06T11:06:36.692Z,9.9
2017-11-06T11:07:38.377Z,8.4
2017-11-06T11:08:40.038Z,11.8
2017-11-06T11:09:41.696Z,10.3
2017-11-06T11:10:43.377Z,12.6
2017-11-06T11:11:45.031Z,16.5
2017-11-06T11:12:46.705Z,17.7
2017-11-06T11:13:48.367Z,12.2
2017-11-06T11:14:50.028Z,13.4
2017-11-06T11:15:51.693Z,15.3
2017-11-06T11:16:53.344Z,13.3
2017-11-06T11:17:54.998Z,8.6
2017-11-06T11:18:56.658Z,12.6
2017-11-06T11:19:58.315Z,17.6
2017-11-06T11:20:59.974Z,16.8
2017-11-06T11:22:01.644Z,9.9
2017-11-06T11:23:03.301Z,10.8
2017-11-06T11:24:04.976Z,11.1
2017-11-06T11:25:06.647Z,12.1
2017-11-06T11:26:08.298Z,13.2
2017-11-06T11:27:09.956Z,8.6
2017-11-06T11:28:11.634Z,9.6
2017-11-06T11:29:13.291Z,9.4
2017-11-06T11:30:14.958Z,10.6
2017-11-06T11:31:16.615Z,10.1
2017-11-06T11:32:18.274Z,8.5
2017-11-06T11:33:19.928Z,10.4
2017-11-06T11:34:21.611Z,12.1
2017-11-06T11:35:23.282Z,12.3
2017-11-06T11:36:24.949Z,9.7
2017-11-06T11:37:26.611Z,8.3
2017-11-06T11:38:28.277Z,11.4
2017-11-06T11:39:29.986Z,8.8
2017-11-06T11:40:31.637Z,10.2
2017-11-06T11:41:33.307Z,10.1
2017-11-06T11:42:34.963Z,14.3
2017-11-06T11:43:36.623Z,6.7
2017-11-06T11:44:38.286Z,9.0
2017-11-06T11:45:39.958Z,10.5
2017-11-06T11:46:41.650Z,10.5
2017-11-06T11:47:43.316Z,21.2
2017-11-06T11:48:44.970Z,19.1
2017-11-06T11:49:46.628Z,12.9
2017-11-06T11:50:48.292Z,10.4
2017-11-06T11:51:49.954Z,11.4
2017-11-06T11:52:51.611Z,11.5
2017-11-06T11:53:53.276Z,10.0
2017-11-06T11:54:54.932Z,11.3
2017-11-06T11:55:56.590Z,9.7
2017-11-06T11:56:59.203Z,11.3
2017-11-06T11:58:01.329Z,9.2
2017-11-06T11:59:03.002Z,8.5
2017-11-06T12:00:04.657Z,11.6
2017-11-06T12:01:06.341Z,10.7
2017-11-06T12:02:08.003Z,17.4
2017-11-06T12:03:09.665Z,15.7
2017-11-06T12:04:11.325Z,15.1
2017-11-06T12:05:12.985Z,12.3
2017-11-06T12:06:14.690Z,10.7
2017-11-06T12:07:16.344Z,14.3
2017-11-06T12:08:18.000Z,14.4
2017-11-06T12:09:19.667Z,10.6
2017-11-06T12:10:21.341Z,14.4
2017-11-06T12:11:23.003Z,12.2
2017-11-06T12:12:24.657Z,11.1
2017-11-06T12:13:26.324Z,10.4
2017-11-06T12:14:27.980Z,12.0
2017-11-06T12:15:29.636Z,12.1
2017-11-06T12:16:31.326Z,9.3
2017-11-06T12:17:32.990Z,10.4
2017-11-06T12:18:34.654Z,12.9
2017-11-06T12:19:36.335Z,9.0
2017-11-06T12:20:38.045Z,9.3
2017-11-06T12:21:39.783Z,7.3
2017-11-06T12:22:41.436Z,8.6
2017-11-06T12:23:43.129Z,8.6
2017-11-06T12:24:44.789Z,7.2
2017-11-06T12:25:46.457Z,6.6
2017-11-06T12:26:48.119Z,10.0
2017-11-06T12:27:49.775Z,9.4
2017-11-06T12:28:51.431Z,4.9
2017-11-06T12:29:53.088Z,7.0
2017-11-06T12:30:54.751Z,4.9
2017-11-06T12:31:56.406Z,5.0
2017-11-06T12:32:58.068Z,5.2
2017-11-06T12:33:59.719Z,5.1
2017-11-06T12:35:01.408Z,4.9
2017-11-06T12:36:03.075Z,12.3
2017-11-06T12:37:04.742Z,5.3
2017-11-06T12:38:06.399Z,7.2
2017-11-06T12:39:08.063Z,9.0
2017-11-06T12:40:09.728Z,9.2
2017-11-06T12:41:11.413Z,7.8
2017-11-06T12:42:13.060Z,27.4
2017-11-06T12:43:14.729Z,10.3
2017-11-06T12:44:16.395Z,4.0
2017-11-06T12:45:18.062Z,4.1
2017-11-06T12:46:19.721Z,6.6
2017-11-06T12:47:21.379Z,6.7
2017-11-06T12:48:23.051Z,4.5
2017-11-06T12:49:24.710Z,5.9
2017-11-06T12:50:26.373Z,6.0
2017-11-06T12:51:28.031Z,5.0
2017-11-06T12:52:29.691Z,10.8
2017-11-06T12:53:31.343Z,10.6
2017-11-06T12:54:33.006Z,11.3
2017-11-06T12:55:34.667Z,10.3
2017-11-06T12:56:36.329Z,9.6
2017-11-06T12:57:37.985Z,8.6
2017-11-06T12:58:39.687Z,9.8
2017-11-06T12:59:41.346Z,10.4
2017-11-06T13:00:43.003Z,10.5
2017-11-06T13:01:44.660Z,9.6
2017-11-06T13:02:46.311Z,6.9
2017-11-06T13:03:47.973Z,6.2
2017-11-06T13:04:49.621Z,5.5
2017-11-06T13:05:51.277Z,8.5
2017-11-06T13:06:52.943Z,6.1
2017-11-06T13:07:54.605Z,7.4
2017-11-06T13:08:56.267Z,5.2
2017-11-06T13:09:57.919Z,6.6
2017-11-06T13:10:59.594Z,4.5
2017-11-06T13:12:01.248Z,7.4
2017-11-06T13:13:02.908Z,10.6
2017-11-06T13:14:04.565Z,6.8
2017-11-06T13:15:06.222Z,9.8
2017-11-06T13:16:07.899Z,8.1
2017-11-06T13:17:09.563Z,7.9
2017-11-06T13:18:11.222Z,9.8
2017-11-06T13:19:12.880Z,7.8
2017-11-06T13:20:14.577Z,7.1
2017-11-06T13:21:16.231Z,8.8
2017-11-06T13:22:17.895Z,5.5
2017-11-06T13:23:19.559Z,6.0
2017-11-06T13:24:21.230Z,11.0
2017-11-06T13:25:22.890Z,8.5
2017-11-06T13:26:24.551Z,10.9
2017-11-06T13:27:26.251Z,15.0
2017-11-06T13:28:27.931Z,24.5
2017-11-06T13:29:29.608Z,21.4
2017-11-06T13:30:31.267Z,11.6
2017-11-06T13:31:32.930Z,11.8
2017-11-06T13:32:34.593Z,15.1
2017-11-06T13:33:36.255Z,12.9
2017-11-06T13:34:37.920Z,10.3
2017-11-06T13:35:39.582Z,7.3
2017-11-06T13:36:41.241Z,10.2
2017-11-06T13:37:42.898Z,8.6
2017-11-06T13:38:44.568Z,11.7
2017-11-06T13:39:46.324Z,12.0
2017-11-06T13:40:47.986Z,7.8
2017-11-06T13:41:49.648Z,9.3
2017-11-06T13:42:51.306Z,7.2
2017-11-06T13:43:52.977Z,10.2
2017-11-06T13:44:54.636Z,13.6
2017-11-06T13:45:56.296Z,10.4
2017-11-06T13:46:57.958Z,12.6
2017-11-06T13:47:59.628Z,11.0
2017-11-06T13:49:01.294Z,9.0
2017-11-06T13:50:02.970Z,11.7
2017-11-06T13:51:04.636Z,10.7
2017-11-06T13:52:06.297Z,10.4
2017-11-06T13:53:07.959Z,12.1
2017-11-06T13:54:09.617Z,14.5
2017-11-06T13:55:11.275Z,12.6
2017-11-06T13:56:12.940Z,9.8
2017-11-06T13:57:14.598Z,16.7
2017-11-06T13:58:16.275Z,12.5
2017-11-06T13:59:17.947Z,13.8